Time;durP1;ratioP1;P1;durP2;ratioP2;P2;SDS_P1;SDS_P2;PMS_P1;PMS_P2;Temp;Humidity;BMP_temperature;BMP_pressure;BME280_temperature;BME280_humidity;BME280_pressure;Samples;Min_cycle;Max_cycle;Signal;HPM_P1;HPM_P2
2022/01/22 00:00:19;;;;;;;21.03;11.57;;;21.20;43.00;;;;;;5146385;27;90400;-75
2022/01/22 00:02:47;;;;;;;154.67;86.27;;;21.30;43.00;;;;;;5135334;27;88366;-75
2022/01/22 00:05:15;;;;;;;101.70;60.10;;;21.40;42.90;;;;;;5138957;27;88558;-76
2022/01/22 00:07:43;;;;;;;83.07;54.30;;;21.40;42.80;;;;;;5140807;27;89483;-75
2022/01/22 00:10:14;;;;;;;83.13;42.73;;;21.40;42.70;;;;;;5144316;27;92391;-76
2022/01/22 00:12:56;;;;;;;102.03;58.27;;;21.30;42.50;;;;;;5145865;27;88238;-75
2022/01/22 00:15:25;;;;;;;196.80;96.17;;;21.30;42.60;;;;;;5133248;27;88343;-75
2022/01/22 00:17:53;;;;;;;1769.87;856.47;;;21.30;42.70;;;;;;5124149;27;89329;-77
2022/01/22 00:20:24;;;;;;;911.87;610.03;;;21.30;42.80;;;;;;5143198;27;89957;-72
2022/01/22 00:22:52;;;;;;;434.13;249.73;;;21.60;43.10;;;;;;5143838;27;88333;-77
2022/01/22 00:25:22;;;;;;;235.63;119.10;;;21.40;42.90;;;;;;5143218;27;88569;-75
2022/01/22 00:27:51;;;;;;;136.93;74.90;;;21.20;43.30;;;;;;5142789;27;89755;-76
2022/01/22 00:30:20;;;;;;;172.03;94.67;;;21.00;42.50;;;;;;5144412;27;88452;-73
2022/01/22 00:32:48;;;;;;;133.67;72.10;;;20.80;42.40;;;;;;5145342;27;88555;-73
2022/01/22 00:35:17;;;;;;;108.27;61.00;;;20.60;42.60;;;;;;5144786;27;88593;-71
2022/01/22 00:37:47;;;;;;;153.27;78.53;;;20.50;42.90;;;;;;5144470;27;89447;-72
2022/01/22 00:40:15;;;;;;;152.97;79.33;;;20.60;43.30;;;;;;5135736;27;90865;-71
2022/01/22 00:42:45;;;;;;;138.03;74.23;;;20.70;43.50;;;;;;5144452;27;88496;-76
2022/01/22 00:45:13;;;;;;;163.23;77.17;;;20.80;43.70;;;;;;5144760;27;88343;-74
2022/01/22 00:47:41;;;;;;;120.47;65.73;;;21.00;43.90;;;;;;5144269;27;90250;-79
2022/01/22 00:50:11;;;;;;;130.77;65.73;;;21.10;44.20;;;;;;5144801;27;92372;-81
2022/01/22 00:52:40;;;;;;;161.57;73.43;;;21.20;44.40;;;;;;5137925;27;88408;-70
2022/01/22 00:55:09;;;;;;;275.10;109.93;;;21.50;44.80;;;;;;5144396;27;88500;-74
2022/01/22 00:57:38;;;;;;;384.70;197.60;;;21.70;45.10;;;;;;5137527;27;90656;-72
2022/01/22 01:00:10;;;;;;;334.50;133.00;;;21.90;45.40;;;;;;5127666;27;88881;-79
2022/01/22 01:02:38;;;;;;;251.80;112.27;;;22.20;45.60;;;;;;5143118;27;90390;-78
2022/01/22 01:05:08;;;;;;;262.30;122.63;;;22.40;45.50;;;;;;5141723;27;88399;-84
2022/01/22 01:07:36;;;;;;;373.13;209.23;;;22.50;45.60;;;;;;5142934;27;90773;-76
2022/01/22 01:10:04;;;;;;;495.57;318.70;;;22.60;45.60;;;;;;5141754;27;89605;-78
2022/01/22 01:12:32;;;;;;;530.53;337.80;;;22.70;45.60;;;;;;5141090;27;88432;-74
2022/01/22 01:15:14;;;;;;;1280.00;808.93;;;22.80;45.60;;;;;;5142800;27;88451;-83
2022/01/22 01:18:04;;;;;;;836.03;546.63;;;22.80;45.80;;;;;;5142157;27;90801;-82
2022/01/22 01:34:24;;;;;;;210.53;121.43;;;23.10;44.70;;;;;;5142681;27;89790;-84
2022/01/22 01:36:53;;;;;;;176.73;94.70;;;23.20;44.70;;;;;;5136291;27;89241;-74
2022/01/22 01:39:25;;;;;;;144.30;82.53;;;23.30;44.90;;;;;;5143720;27;90636;-72
2022/01/22 01:41:58;;;;;;;434.33;303.43;;;23.40;45.20;;;;;;5142807;27;90502;-72
2022/01/22 01:44:26;;;;;;;772.87;552.53;;;23.30;45.50;;;;;;5138392;27;90228;-77
2022/01/22 01:46:56;;;;;;;1999.90;991.67;;;23.30;45.70;;;;;;5121552;27;89793;-73
2022/01/22 01:49:26;;;;;;;1999.90;999.90;;;23.20;46.70;;;;;;5140024;27;92406;-76
2022/01/22 01:51:56;;;;;;;1999.90;999.90;;;23.20;46.40;;;;;;5141946;27;89498;-73
2022/01/22 01:54:31;;;;;;;1999.90;998.10;;;23.20;46.60;;;;;;5142254;27;88557;-74
2022/01/22 01:59:46;;;;;;;1999.90;959.80;;;23.00;46.90;;;;;;5141309;27;93579;-73
2022/01/22 02:02:14;;;;;;;1999.90;916.53;;;22.90;47.00;;;;;;5142328;27;93243;-76
2022/01/22 02:04:43;;;;;;;1197.60;598.80;;;22.80;47.20;;;;;;5142037;27;89935;-73
2022/01/22 02:07:11;;;;;;;455.33;242.03;;;22.80;47.20;;;;;;5141961;27;88484;-73
2022/01/22 02:09:40;;;;;;;524.87;364.93;;;22.70;47.00;;;;;;5142447;27;88938;-76
2022/01/22 02:12:13;;;;;;;354.40;191.20;;;22.50;46.80;;;;;;5135805;27;90510;-74
2022/01/22 02:25:46;;;;;;;359.77;210.17;;;21.00;45.30;;;;;;5139173;27;89347;-79
2022/01/22 02:28:14;;;;;;;285.57;160.30;;;20.70;45.30;;;;;;5141162;27;88613;-77
2022/01/22 02:30:46;;;;;;;401.27;242.37;;;20.60;45.20;;;;;;5141070;27;90602;-71
2022/01/22 02:33:28;;;;;;;1616.53;886.20;;;20.40;45.00;;;;;;5141512;27;89387;-68
2022/01/22 02:36:01;;;;;;;1271.63;763.13;;;20.20;44.90;;;;;;5139283;27;90653;-75
2022/01/22 02:38:37;;;;;;;1286.40;750.77;;;20.10;45.00;;;;;;5123580;27;88453;-76
2022/01/22 02:41:06;;;;;;;486.13;249.63;;;20.20;45.20;;;;;;5120208;27;90594;-75
2022/01/22 02:43:34;;;;;;;80.97;44.27;;;20.40;45.30;;;;;;5140256;27;92224;-82
2022/01/22 02:46:02;;;;;;;169.20;99.40;;;20.50;45.00;;;;;;5142231;27;89003;-79
2022/01/22 02:48:30;;;;;;;293.53;169.60;;;20.60;44.90;;;;;;5138337;27;88376;-71
2022/01/22 02:50:58;;;;;;;293.17;165.13;;;20.60;44.70;;;;;;5120274;27;90734;-74
2022/01/22 02:53:26;;;;;;;226.57;130.20;;;20.60;44.60;;;;;;5124583;27;89823;-71
2022/01/22 02:55:56;;;;;;;225.87;131.77;;;20.70;44.60;;;;;;5128696;27;88320;-74
2022/01/22 02:58:25;;;;;;;249.53;143.17;;;20.80;44.80;;;;;;5141782;27;88300;-77
2022/01/22 03:00:53;;;;;;;215.10;124.77;;;21.00;45.00;;;;;;5140165;27;91208;-78
2022/01/22 03:03:21;;;;;;;389.50;226.87;;;21.20;45.10;;;;;;5141495;27;90073;-77
2022/01/22 03:05:49;;;;;;;634.13;389.87;;;21.40;45.40;;;;;;5125673;27;88223;-75
2022/01/22 03:08:19;;;;;;;276.73;128.30;;;21.50;45.50;;;;;;5129299;27;88482;-77
2022/01/22 03:10:51;;;;;;;443.97;215.80;;;21.60;45.50;;;;;;5139951;27;90668;-74
2022/01/22 03:14:05;;;;;;;1999.90;999.90;;;21.70;45.50;;;;;;5141120;27;89471;-75
2022/01/22 03:16:48;;;;;;;1999.90;999.90;;;21.80;45.60;;;;;;5130607;27;88557;-76
2022/01/22 03:19:30;;;;;;;1999.90;999.90;;;21.80;45.50;;;;;;5141279;27;88736;-76
2022/01/22 03:22:12;;;;;;;1860.23;769.53;;;21.80;45.40;;;;;;5140699;27;93627;-75
2022/01/22 03:27:34;;;;;;;395.70;129.27;;;21.60;45.10;;;;;;5079387;27;88691;-72
2022/01/22 03:30:05;;;;;;;587.40;186.73;;;21.30;44.60;;;;;;5119949;27;88500;-74
2022/01/22 03:32:38;;;;;;;1120.97;389.27;;;20.80;44.30;;;;;;5121566;27;90237;-73
2022/01/22 03:35:11;;;;;;;1999.90;689.77;;;20.50;44.50;;;;;;5142413;27;90219;-76
2022/01/22 03:37:40;;;;;;;1999.90;782.77;;;20.30;44.50;;;;;;5143595;27;88425;-74
2022/01/22 03:40:09;;;;;;;1757.57;591.50;;;20.40;44.70;;;;;;5145142;27;88252;-74
2022/01/22 03:42:37;;;;;;;775.03;235.33;;;20.60;44.80;;;;;;5144740;27;91097;-79
2022/01/22 03:45:08;;;;;;;543.30;151.90;;;20.70;44.50;;;;;;5143360;27;91538;-80
2022/01/22 03:47:36;;;;;;;369.27;106.93;;;20.90;44.40;;;;;;5144221;27;88339;-77
2022/01/22 03:50:05;;;;;;;388.27;115.20;;;21.00;44.20;;;;;;5144362;27;88435;-77
2022/01/22 03:52:34;;;;;;;292.67;86.07;;;21.10;44.10;;;;;;5144163;27;91011;-78
2022/01/22 03:55:02;;;;;;;362.87;97.33;;;21.20;44.00;;;;;;5145409;27;90437;-75
2022/01/22 03:57:29;;;;;;;217.50;54.30;;;21.20;43.90;;;;;;5145239;27;88320;-79
2022/01/22 03:59:57;;;;;;;260.73;65.70;;;21.30;43.90;;;;;;5145554;27;88436;-78
2022/01/22 04:03:14;;;;;;;781.87;270.63;;;21.30;43.90;;;;;;5146522;27;92810;-80
2022/01/22 04:05:57;;;;;;;1023.80;452.83;;;21.40;44.10;;;;;;5145001;27;90106;-78
2022/01/22 04:08:24;;;;;;;1122.97;520.33;;;21.40;44.10;;;;;;5144691;27;89634;-81
2022/01/22 04:10:52;;;;;;;841.37;397.47;;;21.40;44.20;;;;;;5144083;27;88985;-82
2022/01/22 04:13:25;;;;;;;527.27;244.73;;;21.40;44.20;;;;;;5144059;27;90667;-82
2022/01/22 04:15:53;;;;;;;374.77;161.17;;;21.40;44.30;;;;;;5143407;27;91709;-79
2022/01/22 04:26:52;;;;;;;121.83;51.53;;;21.20;44.00;;;;;;5142742;27;90026;-74
2022/01/22 04:29:20;;;;;;;96.73;44.80;;;21.10;43.90;;;;;;5142570;27;88340;-72
2022/01/22 04:31:48;;;;;;;106.83;45.03;;;21.10;44.00;;;;;;5129444;27;88439;-73
